Race Results for
Tucson Bicycle Classic
Tucson, AZ
(Event Information)
Road Race on 03/08/2009

Note: Ranking points are NOT upgrade points. An explanation of ranking points can be found here.


Men - JR - 10-99

 Place Points NameCity, StateTime USAC #BibTeam
1Gavin Anderson   Tucson, AZ0:46:24 263889  100 NA

Men - JR - 13-14

 Place Points NameCity, StateTime USAC #BibTeam
1540.00Max Cronyn   Washington, DC0:46:27 277670  103 El Grupo
2565.00Logan Boyd   Tucson, AZ0:46:27 291078  104 El Grupo Youth Cycling
3590.00Christian Mathews   Tucson, AZ0:54:47 284799  105 NA

Men - JR - 15-16

 Place Points NameCity, StateTime USAC #BibTeam
1540.00Rodrigo Diaz   Somerton, AZ1:07:35 287544  106 Yuma Bike Club/YBC Racing
2552.50Andrew Gonzales   Bayard, NM1:07:46 277967  109 6's & 7's Racing
3565.00Alejandro Vieyra   Yuma, AZ1:09:55 287984  110 Yuma Bike Club/YBC Racing
4577.50Jesse Zepeda   Yuma, AZ1:10:11 288451  107 Yuma Bike Club/YBC Racing
5590.00Genaro Diaz   Aurora, CO1:10:15 288908  108 Yuma Bike Club/YBC racing

Men - JR - 17-18

 Place Points NameCity, StateTime USAC #BibTeam
1Bora Leonard   Sierra Vista, AZ1:28:16 272738  112 Thunder Mountain Cycling
2Primo Yocupicio   Yuma, AZ1:39:53 286813  111 Yuma Bike Club/YBC racing

Men - Pro/Cat 1

 Place Points NameCity, StateTime USAC #BibTeam
1316.18Nicholas Clayville   Lake Tapps, WA2:03:19 200386  14 Hagens Berman LLP
2323.90Sean Mazich   Yuma, AZ2:03:24 196405  Team Waste Management
3331.62Chad Beyer   Tucson, AZ2:03:24 155190  38 BMC Pro cycling Team
4Thomas Zahnd   2:03:26  Team Stoeckli-Craft
5347.06Brian Forbes   Mesa, AZ2:03:26 65615  41 RIDECLEAN
6354.78Joshua Bartlett (1 - Pro)   Windham, NH2:03:26 156797  22 Land Rover-Orbea
7362.50Timothy Carolan   Tucson, AZ2:03:26 55904  Landis/Trek
8370.22James Carney   Tucson, AZ2:05:07 45167  26 RideClean
9377.94Alex Howes   Boulder, CO2:05:07 138150  44 Felt-Holowesko-Garmin
10JR Grabinger   2:05:07  21 Fly V Australia P/B Successful Living
11393.38Eric Marcotte   Scottsdale, AZ2:05:07 212698  29 bicycle haus
12401.10Nicholaus Schreiber   Tucson, AZ2:05:07 93359  15 Landis/Trek
13408.82Michael Woell   Minneapolis, MN2:05:07 227850  18 MBRC/Flanders
14416.54Alister Ratcliff   Durango, CO2:05:07 193797  43 Bikereg.com/Cannondale
15424.26Jared Gilyard   Flagstaff, AZ2:05:07 226665  25 RideClean
16431.98Ronald Jensen   Tucson, AZ2:05:07 82670  10 Cycling Center Team
17439.70Michael Mathis   Tucson, AZ2:05:07 200845  16 CRCA/EMPIRE CYCLING TEAM p/b Northwave
18447.42Walter Vaughan   Vail, AZ2:05:07 56619  Landis/Trek
19455.14Peter Salon   New York, NY2:05:07 192635  12 Felt-Holowesko Partners-Garmin
20Michael Mitchnick   2:05:07  17 Trek Store Race Team
21470.58Scott Stewart   Highland, MI2:05:07 205083  Team Waste Management
22478.30Jonathan Scholnick (1 - Cat1)   Tucson, AZ2:05:07 31751  24 RideClean
23486.02Paul Thomas   Tucson, AZ2:05:07 87933  13 Southwest Hand
24Ryan Taylor   2:05:07  Land Rover-ORBEA
25501.46David Glick   Tucson, AZ2:05:07 175967  31 RideClean
26Daniel Vaillancourt   2:05:07  33 Colavita/Sutter Home
27516.90Jonathan Chodroff   Kennett Square, PA2:05:07 230448  23 OUCH/MAXXIS
28Yarden gazit   2:05:07  Tel Aviv Cycling Club
29532.34Eugene Boronow   Tucson, AZ2:05:07 57369  28 GS Mengoni
30540.06Daniel Zmolik   New York, NY2:05:30 204958  34 CRCA/EMPIRE CYCLING TEAM p/b Northwave
31547.78Kyle Colavito   Tucson, AZ2:10:55 190677  19 RIDECLEAN

Men - Cat 2

 Place Points NameCity, StateTime USAC #BibTeam
1407.35Ryan Nye   Westover, WV1:57:44 236600  292 Preferred Care Elite Cycling
2412.03Brian Cornelius   Tucson, AZ1:57:44 178293  254 Landis/TREK
3Kiven Kinkwood   1:57:44  280 Bicycle Haus Racing
4421.39Robert Pasco   Belmont, CA1:57:44 136970  288 SAFEWAY/Bicycles Plus
5426.07Craig Streit   Scottsdale, AZ1:57:44 197252  260 Carlos O'Briens Racing
6430.75Alex Jarman   Solana Beach, CA1:57:44 225617  251 Swami's-FPPI Devt Elite
7435.43Travis (TJ) Woodruff   Prescott, AZ1:57:44 135975  295 Adventure212/Specialized
8440.11Ryan Zupko   Chandler, AZ1:57:44 170296  291 Team Waste Management
9444.79Jesus Zapata   El Paso, TX1:57:44 69395  277 colavita new mexico
10449.47Jesse Dekrey   Durango, CO1:57:44 192192  276 Kahala-LaGrange
11454.15Christopher Wingfield   Bainbridge Island, WA1:57:44 247269  257 Hagens Berman LLP
12458.83Tim Allen   Golden, CO1:57:44 161831  294 Team Waste Management
13463.51Tyler Locke   Canyon Country, CA1:57:44 218099  297 NOW MS-Society
14468.19Travis Erwin   Salt Lake City, UT1:57:44 241581  296 Taser/Kenda
15472.87Thomas Jondall   Rancho Santa Margarita, CA1:57:44 243091  293 Ride Clean
16477.55Brian Rach   Chilton, WI1:57:44 257820  253 ISCorp/Nova Cycle Sports Foundation Inc.
17Brian Bain   1:57:44  255 CMC/Bow Cycle
18486.91Robert Ball   Peoria, AZ1:57:44 204549  290 Swiss American
19491.59Jeff Zygo   Scottsville, NY1:57:44 232379  275 Preferred Care Elite Cycling
20496.27Mark Wald-Hopkins   Los Alamos, NM1:57:44 109626  281 NM Colavita
21Henry Swinty   1:57:44  271 Rica Burger
22505.63John Rondash   Los Angeles, CA1:57:44 52283  299 Team Helen Elite Masters
23510.31Daniel Quirk   Petaluma, CA1:57:44 201585  262 Veloce/Felt
24514.99Zachary Tittensor   Highland, UT1:57:44 217116  298 American R.A.A.D. presented by Agel
25519.67Zack Simkover   San Francisco, CA1:57:44 206495  278 Swami's-FPPI Devt Elite
26524.35Erik Long   Ashland, OR1:57:44 97625  266 Eclipse Racing
27529.03Eric Kenney   Boulder, CO1:57:44 184675  265 Horrizon Organic cycling
28533.71David Costa   Roselle Park, NJ1:57:44 218866  264 Anthem Sports Development Team
29538.39Nicholas Traggis   Boulder, CO1:57:44 108501  283 Horizon Organic PB Prerace.com
30543.07Jason King   Napa, CA1:57:44 211026  274 Swami's-FPPI Devt Elite
31547.75Matthew Holecko   Scottsdale, AZ1:57:44 148285  282 Carlos Obriens Racing
32552.43Frank Barnes   Tucson, AZ1:57:44 221446  269 Summit Velo
33557.11David Swanson   Tucson, AZ1:57:57 195946  263 SummitVelo
34561.79Andrew Jorgenson   Tucson, AZ1:57:59 187103  252 Racelab u-23
35Chris McDonald   1:57:59  256 unattached
36571.15Evan Bowman   Oakland, CA1:58:12 257006  268 Team Waste Management
37575.83Hugh Selby   Los Alamos, NM1:58:12 102615  272 Colavita Racing
38580.51Robert Dolman   Scottsdale, AZ1:58:33 186426  289 Bike Haus Racing
39585.19Evan Hepner   Albuquerque, NM2:02:38 161841  267 Mi Doule
40589.87Gerard Prosnier   Scottsdale, AZ2:09:10 142188  270 Carlos O'Briens Racing

Men - Cat 3

 Place Points NameCity, StateTime USAC #BibTeam
1Keith Bayly   1:45:38  315 Speed Theory
2488.81Shawn Daly   Tucson, AZ1:45:38 205616  301 southwest hand
3491.00Brendan Halpin   Missoula, MT1:45:44 235728  342 Hammer Nutrition
4493.19Ben Stalker   Durango, CO1:45:46 252617  344 Fort Lewis
5495.38Brian Meyer   Tucson, AZ1:45:48 220650  338 University of Arizona
6497.57Russell Brown   Gaithersburg, MD1:45:50 222506  305 NCVC/Inova Health System
7499.76Bryan Schlegel   Tucson, AZ1:45:52 203915  336 Aggress
8501.95Dan Shannon   Tucson, AZ1:45:52 170966  332 Team RPM
9504.14Keith Brodhagen   Phoenix, AZ1:45:52 257201  316 Procon/Carlos Obriens racing
10506.33Aaron Walker   Tempe, AZ1:45:52 246787  348 Team Vitesse
11rene corella   1:45:52  307 Norson-VH
12510.71Joe Ebenroth   Scottsdale, AZ1:45:52 246607  319 Bicycle Haus Racing
13512.90Emmanuel Garcia-Escudero   Valencia, CA1:45:52 248581  328 Santa Clarita Velo
14515.09michael hand   Santa Clarita, CA1:45:52 263355  312 Santa Clarita Velo
15mike bridschge   1:45:52  311 n/a
16519.47Geoff Chalmers   Tempe, AZ1:45:52 206838  323 Team Vitesse
17521.66Joseph Ainsworth   Pasadena, CA1:45:52 263817  317 Now-MS Society / U23
18523.85Alex Dossin   Cambridge, MA1:45:52 257532  347 NEBC / Cycle Loft / Devonshire Dental
19526.04Brian Flaherty   Grand Junction, CO1:45:52 175171  337 NA
20528.23Nathaniel Shay   Silver City, NM1:45:52 32358  309 Biciclub
21530.42Brent Alumbaugh   Grand Junction, CO1:45:52 242832  340 Sports Systems
22Brad Senska   1:45:52  343 Summit Velo
23534.80David Ubinger   Chaparral, NM1:45:52 253918  330 Colavita NM
24536.99Jeffrey Kluve   Phoenix, AZ1:45:52 56497  321 Carlos O'Brien's Racing
25539.18Ethan Ensley   Orlando, FL1:45:52 198637  325 Sports Systems-MTC
26541.37Ian Gordon   Wakefield, RI1:45:52 194006  322 Team Arcen Ciel Racing
27543.56Jim Stefanoff   Spokane, WA1:45:52 236429  320 Emde Sports
28545.75Erik Markewich   Beacon, NY1:45:52 230301  326 Anthem Sports Elite Development
29547.94Paul Kealey   Tucson, AZ1:45:52 151304  308 Summit Velo
30550.13Scott Wall   Broomfield, CO1:45:52 237159  303 Procon/Carlos Obriens Racing
31552.32Andrew Scott   Tucson, AZ1:45:52 206228  345 Summit Velo
32Garrett McAllister   1:45:52  324 Wheaton Franciscan Health Care
33556.70Brent Barber   Tucson, AZ1:45:52 242717  341 aggress
34558.89Elliot DuMont   Tucson, AZ1:54:17 220038  329 Claremont Colleges Cycling
35561.08Richard Biocca   Tucson, AZ1:55:07 210759  306 Eclipse Racing
36563.27Andrew Sniegowski   Phoenix, AZ1:55:07 233197  346 NA
37565.46Daniel Perez   El Paso, TX1:55:07 220957  331 
38567.65Scott Lefler   Tempe, AZ1:55:07 192898  302 Procon/Carlos O'Briens
39569.84Wesley Reutimann   Pasadena, CA2:01:09 268144  300 PAA

Men - Cat 4

 Place Points NameCity, StateTime USAC #BibTeam
1Travis McCabe   1:28:28  441 
2531.00Matthew Konyn   Canton, MI1:28:28 222731  481 
3532.05Patrick Wiatrolik   Clarkdale, AZ1:28:28 245390  486 Red Rock Racing
4533.10N/A   Tucson, AZ1:28:28 269677  452 Strada Racing
5Greg Yanicki   1:28:28  465 bicisport
6535.20Kurt Garbe   Tucson, AZ1:28:28 261467  475 Aggress
7536.25Justin Orkney   Tucson, AZ1:28:28 257895  473 Summit Velo
8537.30Thomas Collins   Tucson, AZ1:28:28 55106  495 UA
9538.35Luke Dale   Gilbert, AZ1:28:28 252667  477 Focus Racing
10539.40Daniel De Mos   Tiburon, CA1:28:28 244512  457 Focus Cyclery
11540.45Taylor Hansen   Queen Creek, AZ1:28:28 266465  494 Honeywell Cycling
12541.50Brock Boynton   Madison, WI1:28:28 264070  451 NA
13542.55Andre McNulty   Tucson, AZ1:28:28 260527  443 Trisports.com
14543.60Gavin Kivisto   Oro Valley1:28:28 249038  464 NA
15Mark Rainer   1:28:28  479 LaBiciClettaProShop.com
16545.70Cory Bruno   El Cajon, CA1:28:28 277285  455 Velo Allegro
17546.75Lorin Jessup   Tucson, AZ1:28:28 264000  476 waste management
18547.80Dan Maher   Tucson, AZ1:28:28 229834  456 Syncardia
19548.85Troy Burns   Vail, AZ1:28:28 239690  497 Echelon Racing
20549.90Frank Frederick   Miami, FL1:28:28 243336  463 NA
21550.95John Ritter   Gilbert, AZ1:28:28 275293  471 Team Bicycle Ranch
22552.00James Gonnason   Phoenix, AZ1:28:28 273843  442 UA Cycling
23553.05Juan Quintero   Bend, OR1:28:28 174529  472 Team Helens/8WC
24554.10Marvin Makus   Tucson, AZ1:28:28 247801  480 Summit Velo
25555.15Steve Alward   Prescott, AZ1:28:28 47552  493 NA
26556.20Doug Lage   Scottsdale, AZ1:28:28 226838  461 Waste Management
27557.25Jake Merry   Tucson, AZ1:28:28 197044  467 Summit Velo
28558.30James Hemphill   Silver City, NM1:28:28 122007  469 BICI CLUB
29Peter Michaud   1:28:28  487 echelon
30560.40Jarrod Barnes   San Antonio, TX1:28:28 89596  468 Carlos OBriens Racing
31561.45Jeff Baylor   Scottsdale, AZ1:28:28 282609  470 Team Bicycle Ranch
32562.50Kurt Smith   Maricopa, AZ1:28:28 269212  474 San Tan Racing / Paragon
33563.55Elliot Anderson   Tucson, AZ1:28:38 259990  462 Aggress
34564.60Michael Castro   Phoenix, AZ1:28:38 288720  483 Team Bicycle Ranch
35Morten Andersen   1:28:38  484 NA
36566.70Troy Foede   Snowflake, AZ1:28:38 242354  496 Unattached
37567.75Brian Marcucci   Phoenix, AZ1:28:38 221141  450 Team DNA Racing
38568.80Doug Stewart   Tucson, AZ1:28:38 206577  460 Presteza
39569.85Aaron Lindflott   Tucson, AZ1:28:38 260529  445 Summit Velo
40570.90Dave Goedecke   Pinetop, AZ1:28:59 13493  458 Cycle Mania
41571.95Anthony Chavez   Tucson, AZ1:33:24 266284  447 Scott & White Cycling
42573.00Ywaine Klix   Oro Valley, AZ1:33:24 273128  499 Eclipse Racing
43574.05collin costello   Clarkdale, AZ1:33:26 272776  454 NA
44575.10Peter Durso   Albuquerque, NM1:33:26 244489  488 Zia Velo
45576.15Richard Horn   Tucson, AZ1:34:24 267483  492 Echelon Racing
46Jacob Hines   1:39:59  466 NA
47578.25Wayne Moore   Tucson, AZ1:46:19 254383  498 Echelon

Men - Cat 5

 Place Points NameCity, StateTime USAC #BibTeam
1540.00Victor Riquelme   Tucson, AZ1:13:12 282338  501 Aggress
2541.11Jay Koesters   Tucson, AZ1:13:12 291628  551 NA
3542.22Mahting Putelis   Louisville , CO1:13:12 286398  518 Bicycle Haus
4Douglas Hulett   1:13:12  535 Bici Club
5Doug Hicks   1:13:12  536 NA
6545.55Richard Lisk   Tucson, AZ1:13:12 287416  508 Unattached
7546.66Ethan Burns   Tucson, AZ1:13:12 272627  534 NA
8Matthew Beauregard   1:13:12  513 Trisports.com
9Ross Lamb   1:13:12  507 Eclipse
10549.99Brian Ellis   Tucson, AZ1:13:12 288591  543 Syncardia
11551.10Todd Getzelman   Flagstaff Az1:13:12 280804  502 Echelon Racing
12552.21Andrew Templeton   Albuquerque, NM1:13:12 277364  546 KHSnm.com
13Marco Menchaca   1:13:12  516 Aker Solutions
14554.43Aaron Roy   Albuquerque, NM1:13:12 290508  549 NA
15555.54Lawrence Knight   Oro Valley, AZ1:13:12 256056  519 Team Tolero
16556.65William Lucas   Tucson, AZ1:13:12 280270  545 independent
17557.76John Bilderbeck   Tucson, AZ1:13:12 139661  550 NA
18558.87DARIN FILA   Mesa, AZ1:13:12 254582  541 Team DNA Racing
19Joseph Holguin   1:13:12  522 NA
20561.09Jay Croswell   Tucson, AZ1:13:12 286082  529 NA
21562.20Michael Leonard   Sierra Vista, AZ1:13:12 219630  511 Thunder Mountain Cycling
22563.31John Ryan   San Diego, CA1:13:12 270737  526 NA
23564.42Billy Brenden   Tucson, AZ1:13:12 290617  544 TriSports.com
24565.53Alex Strickland   Tucson, AZ1:15:20 277660  548 EL Groupo
25566.64Michael LaForte   Long Beach, CA1:15:31 279810  510 Unattached
26567.75marco valente   Vail, AZ1:16:19 289650  517 Syncardia
27568.86Matthew Giardina   Pittsfield, MA1:17:05 284057  514 University of Arizona
28569.97waldo terrazas   El Paso, TX1:17:23 288782  500 n/a
29Russell LaFluer   1:17:25  506 Bicycle Haus
30Andrew Suter   1:17:38  553 NA
31573.30Holt Nixon   Elpaso, TX1:18:49 286924  532 UTEP
32dean wilson   1:19:02  538 NA
33575.52Jason Dannettel   Tucson, AZ1:19:37 160962  530 Team Tolero
34576.63Ryan Repucci   Tucson, AZ1:21:01 272187  505 NA
35577.74Shane Durkin   Chandler, AZ1:21:01 284831  504 University of Arizona
36578.85michael wilkinson   Tucson, AZ1:24:15 285079  512 Waste Management
37Alie Buckmire   1:24:30  547 NA
38581.07John Boswell   Tucson, AZ1:25:30 239528  524 Echelon Racing
39John Kramer   1:26:57  525 el grupo youth cycling
40583.29kris cobbs   Tucson, AZ1:28:40 267951  520 summit velo
41584.40Diuck Del Rio   Vail, AZ1:28:40 272722  552 echelon Racing
42Jarrod Swackhamer   1:29:01  531 NA
43586.62Dennis Kruse   Tucson, AZ1:30:14 288656  537 NA
44craig miranda   1:30:14  542 NA
45588.84Mark Lappin   Oro Valley, AZ1:31:56 276750  515 Eclipse Racing
46589.95David Bermudez   Tucson, AZ1:31:56 255998  539 Eclipse Racing

Men - Masters - 35-44

 Place Points NameCity, StateTime USAC #BibTeam
1424.34Jim Woodburne   Phoenix, AZ1:40:16 236370  674 Swiss American
2430.05Johnathan Edwards   Las Vegas, NV1:40:16 10514  670 Paul Tracy.com
3435.76Kurt Rosenquist   Tucson, AZ1:40:16 54553  664 Team RPM
4441.47Bryan Antol   Flagstaff, AZ1:40:16 1806  684 GST Racing
5447.18Louie Amelburu   Las Vegas, NV1:40:16 65992  660 PaulTracy.com
6452.89Daniel Bennett   San Simon, AZ1:40:16 49417  683 Cyclescience
7458.60Jim Silverman   Flagstaff, AZ1:40:16 183486  673 GST Racing
8464.31Chris Poole   Phoenix, AZ1:40:16 120794  685 Honeywell Cycling
9Isaul Montenegro   1:40:16  678 P&S-Specialized
10Ernesto Yberri   1:40:16  679 P&S-Specialized
11Luis Chacon   1:40:16  659 P&S-Specialized
12487.15Lawrence Mares (1 - Cat3)   Santa Cruz, CA1:40:16 40213  662 GST Racing
13492.86Todd Tankersley   Phoenix, AZ1:40:16 273891  651 Swiss American
14498.57Scott Hubbard (1 - Cat2)   Albuquerque, NM1:40:16 190601  655 KHSnm.com Cycling Team
15504.28Stephen Mathias   Albuquerque, NM1:40:16 219183  652 Olev Rapido/NM Sports & Wellness
16509.99Kurt Kroese   Tucson, AZ1:40:16 190256  663 GST Racing
17515.70Mike Warren   Los Alamos, NM1:40:16 272632  657 Bike N Sport
18521.41Douglas Terrell   Phoenix, AZ1:40:16 47706  682 Unattached
19527.12Leo Masursky   Tucson, AZ1:40:16 208705  661 GST
20532.83Jeffrey Hoppert (2 - Cat2)   Tucson, AZ1:40:16 109348  675 Eclipse
21538.54Michael Middleton   Tucson, AZ1:40:16 116748  658 Rhino
22544.25Josh Rider (2 - Cat3)   Albuquerque, NM1:40:16 237958  667 KHS.Com
23549.96Jose Velazco   Coolidge, AZ1:40:16 191841  669 Honeywell Cycling
24555.67Randolph Ortega   El Paso, TX1:40:43 188655  656 Healthmaxx
25Jose Nicola   1:40:47  668 P&S-Specialized
26567.09Albert Senft   Albuquerque, NM1:40:51 32168  689 KHSnm.com
27Joel Castro   1:47:37  671 P&S-Specialized
28578.51Alex Pendleton   Henderson, NV1:47:37 166056  688 Paul Tracy.com
29584.22James Riehle   Brighton, MA1:58:34 278216  677 Boston Road Club
30589.93Barry Lasko   Henderson, NV2:15:46 171774  687 Barry Lasko DDS/Paul Tracy

Men - Masters - 45-54

 Place Points NameCity, StateTime USAC #BibTeam
1468.75 J (Kipp) Metzger   Tucson, AZ1:29:01 254621  786 Team RPM
2472.79Jay Guyot   Tucson, AZ1:29:01 126818  777 GST Racing
3476.83Scott Baker   Oro Valley, AZ1:29:01 82541  797 GST Racing
4480.87Jesus Lamb   Tucson, AZ1:29:01 191857  779 GST Racing
5484.91Joseph Suida   Tucson, AZ1:29:01 185082  785 Southwest Hand cycling team
6488.95Chris Gould   Tucson, AZ1:29:01 13783  770 GST RACING
7greg howard   1:29:01  775 southwest hand
8497.03Jon Black   Tucson, AZ1:29:01 154067  784 GST Racing
9501.07Anthony Hills   Corrales, NM1:29:01 288631  766 High Desert Bicycles
10Haluk Sarci   1:29:01  776 Strictly Bicycles
11509.15Donald Lewis   Tucson, AZ1:29:01 21068  774 Team Rhino
12513.19Adrian Schumacher   Tucson, AZ1:29:01 140853  763 GST Racing
13517.23David Able   Flagstaff, AZ1:29:01 287839  773 Team One Racing
14521.27Andrew Hosterman   Tucson, AZ1:29:01 48867  765 Southwest Hand Cycling Team
15525.31Scott Leonard   Vail, AZ1:29:01 107687  796 Team Rhino
16529.35Charles Royalty   Tempe, AZ1:29:01 153317  768 San Tan Racing / Paragon
17533.39Mark Beaty (1 - Cat3)   Denver, CO1:29:01 188756  792 Rocky Mountain Spine & Sport Cycling
18537.43Peter Brown   Tucson, AZ1:29:01 46885  791 GST Racing
19541.47Peter Molk   Tucson, AZ1:29:01 109736  790 Southwest Hand Cycling Team
20545.51Steve Morton   Anaheim, CA1:29:01 60231  798 GST Racing
21549.55Marco Bonelli   Englewood, NJ1:29:01 57892  787 Strictly Bicycle Racing
22553.59Jimmy Riccitello   Tucson, AZ1:29:01 49145  780 Trisports.com
23557.63Charles Higgins   Phoenix, AZ1:29:01 188528  769 Landis/Trek
24561.67Corky Kurtz   Flagstaff, AZ1:29:01 80186  771 Team RPM
25565.71Nelson Cronyn   Washington, DC1:29:01 62396  789 Unaffiliated
26569.75John Johnson   Tucson, AZ1:29:01 17974  783 Southwest Hand Cycling Team
27573.79David French   Tucson, AZ1:29:01 53871  772 Southwest Hand Cycling Team
28577.83Rick Varela   El Paso, TX1:35:00 169320  794 Healthmaxx
29581.87Richard Ortega   El Paso, TX1:37:02 197294  793 Healthmaxx
30585.91Neil McLeod   Tucson1:39:52 23717  788 Summit Velo
31589.95Sven Gunn   Tucson, AZ1:47:41 188040  799 Echelon Racing

Men - Masters - 55-99

 Place Points NameCity, StateTime USAC #BibTeam
1479.36Bill McDorman   Tucson, AZ1:32:17 180347  216 Team One
2486.83David Bixby   Phoenix, AZ1:32:17 125651  213 Team RPM
3494.30Evan Unger   Tucson, AZ1:32:17 152403  210 southwest hand
4501.77Donald Williams   Los Angeles, CA1:32:17 38334  212 Team RPM
5509.24Benjamin Maciel (1 - Cat4)   Heber, CA1:32:17 275832  217 Health Net Citrus Valley Velo
6516.71Craig Liming   Hereford, AZ1:34:19 113000  214 Thunder Mtn Cycling
7Roy Quade   1:34:19  203 BiciSport
8531.65Craig Swetel   Mesa, AZ1:36:12 166887  215 San Tan Racing
9539.12James Ostrem   Tucson, AZ1:36:14 226520  206 Team RPM
10546.59Jay Hirsch   Tucson, AZ1:39:52 126328  207 Southwest Hand Cycling Team
11554.06Richard Duncan   Tucson, AZ1:42:00 49488  204 Team RPM
12561.53Douglas Perry   Tucson, AZ1:42:00 280420  211 NA
13Steve Bohn   1:50:26  202 Le Scomparse
14576.47Gary Sax   Tucson, AZ1:50:26 127028  208 Summit Velo
15Steven Schmidt   1:50:39  201 Baddlands

Men - Masters - 65-99

 Place Points NameCity, StateTime USAC #BibTeam
1517.78Gary DeVoss   San Diego, CA1:24:52 51495  604 San Diego Cyclo-Vets
2531.66Butch Richardson   San Diego, CA1:24:52 186694  605 San Diego Cyclo-Vets
3545.54Ralph Duckett   Tucson, AZ1:29:25 50589  601 SOUTHWEST HAND
4559.42Richard Ellwanger   Tucson, AZ1:29:25 272136  600 Aggress
5573.30Jacobo Melcer   Bonita, CA1:29:25 207024  603 San Diego Cyclo-Vets

Men - Masters - 70-99

 Place Points NameCity, StateTime USAC #BibTeam
1486.14Franz Hammer   Oro Valley, AZ1:22:12 45423  702 Excel Sports
2538.07David Deichman   Tucson, AZ1:30:47 56635  704 saguaro velo
3590.00Jim Moutray   Sonoita, AZ1:36:10 181576  700 International Christian Cycling

Women - JR - 13-14

 Place Points NameCity, StateTime USAC #BibTeam
4Syria Zepeda   Yuma, AZ1:02:58 288452  102 Yuma Bike Club/YBC Racing

Women - Cat 1/2

 Place Points NameCity, StateTime USAC #BibTeam
1joelle numainville   1:58:40  84 Team Kenda Tire
2487.83Chloe Forsman   Tucson, AZ1:58:40 214920  91 LUNA Pro Team
3491.50Rebecca Much   Fort Collins, CO1:58:40 192744  75 Webcor Builders
4495.17Janel Holcomb   San Diego, CA1:58:40 255006  86 Webcor Builders
5498.84Spring Clegg   Tucson, AZ1:58:40 146109  71 Specialized D4W/Bicycle Haus
6502.51Erica Zaveta (1 - Cat2)   Brevard, NC1:58:40 230062  89 University of Arizona
7506.18Marisa Asplund   Durango, CO1:58:40 209181  79 DFT p/b Treads
8Marilyn McDonald   1:58:40  80 Specialized D4W/Bicycle Haus
9Gabriela Ferrat   1:58:40  88 
10517.19Melissa McWhirter (1 - Cat1)   Scottsdale, AZ1:58:40 223966  77 Veloforma
11520.86Tamara Lamb   Westlake Village, CA1:58:40 179319  70 Eclipse
12Kathryn Bertine   1:58:40  82 Specialized D4W/Bicycle Haus
13528.20Angela Axmann   Phoenix, AZ1:58:40 245615  92 Specialized D4W/Bicycle Haus
14531.87Christine Saraceni   Breinigsville, PA1:58:40 131390  90 Swiss American Racing
15535.54Heather Sborz   Phoenix, AZ1:58:40 221293  87 Specialized D4W/Bicycle Haus
16539.21Sabrina Savage (2 - Cat1)   Mesa, AZ1:58:40 272258  74 Veloforma
17542.88Sherry Phillips   Pittsboro, NC1:58:40 159555  72 NA
18546.55Melanie Meyers   Flagstaff, AZ1:58:47 196731  78 Specialized D4W/Bicycle Ha
19550.22Johanna Schmidt   Traverse City, MI1:58:47 236546  83 Hagerty

Women - Cat 3

 Place Points NameCity, StateTime USAC #BibTeam
1538.30Teri Albertazzi   Tucson, AZ1:44:51 208886  399 NA
2543.64Michelle King   Phoenix, AZ1:44:55 238539  397 Colavita-Vegas
3Laurie Mauderly   1:44:55  396 NMVS
4554.32Judy Jenkins   Tucson, AZ1:44:55 263876  394 Specialized D4W/Bicycle Haus
5559.66Greta Neimanas   Colorado Springs, CO1:44:55 223804  393 xXx Racing-AthletiCo
7570.34Carolyn Carbone   Tucson, AZ1:46:36 255571  389 Echelon Racing
8575.68Corinna Pietruszynski   Tucson, AZ1:46:49 192082  391 Summit Velo
9581.02Katherine Farago   Mesa, AZ1:50:30 141474  395 San Tan Racing/Paragon Cycling
10586.36Cindy Sanchez   Tucson1:51:11 231145  390 Summit Velo
14532Courtney Trabon   Silver City , NMNM 200493  392 COLAVITA

Women - Cat 4

 Place Points NameCity, StateTime USAC #BibTeam
1527.76Summer OBlack   San Diego, CA1:28:16 288337  401 Swami's
2Jennifer Luebke   1:28:16  406 Northern Rockies Orthopaedic
3538.14Eileen Wittman   Tucson, AZ1:28:16 291047  408 Summit Velo
4543.33Shawn Shackelton   Scottsdale, AZ1:28:16 249570  402 Colavita AZ
5548.52Clarissa Freeman   Albuquerque, NM1:28:16 254762  409 KHSnm.com Cycling Team
6553.71Carrie Hansen   Weymouth, MA1:28:16 273144  410 Specialized Designs for Women/Bicycle Ha
7Gretchen Selby   1:28:16  407 Colavita NM
8564.09Kimberly Truitt   Tucson, AZ1:28:16 289865  405 Eclipse Racing
9Madeline Hack   1:28:16  403 NA
10574.47Susan Frank   Tucson, AZ1:28:16 277104  400 Team RPM
11579.66Liz Merritt   Mesa, AZ1:29:15 254640  404 Team Kenda
12Carol Chester   1:32:47  411 Bicisport
13Alexis Brown   1:33:03  412 NA

Women - Masters - 35-99

 Place Points NameCity, StateTime USAC #BibTeam
1540.00Sue Adkins   Laveen, AZ1:28:58 226643  180 Team Kenda Tire
2565.00Monica Suriano   Chandler, AZ1:29:10 275696  181 Team Kenda Tire
3Linda Hubell   1:29:20  182 Mountain Velo Cycling Team

Report missing or incorrect license numbers

Volkswagen
SpyUSACDFBonk BreakerSierra NevadaShimano
UCI USA Cycling is the official governing body for all disciplines of competitive cycling in the United States. The 501c3, membership-based organization aims both to achieve sustained success in international cycling competition and to grow competitive cycling in America while delivering an exceptional customer experience.
View Children's Online Privacy Protection Policy
US Olympic Committee